createdAt,value
2022-12-11T00:00:28.240Z,48.64
2022-12-11T00:02:58.933Z,48.67
2022-12-11T00:05:29.584Z,48.68
2022-12-11T00:08:00.362Z,48.67
2022-12-11T00:10:34.646Z,48.64
2022-12-11T00:13:08.583Z,48.70
2022-12-11T00:15:40.556Z,48.60
2022-12-11T00:18:14.949Z,48.73
2022-12-11T00:20:45.784Z,48.68
2022-12-11T00:23:16.443Z,48.74
2022-12-11T00:25:48.487Z,48.88
2022-12-11T00:28:20.374Z,48.94
2022-12-11T00:30:51.113Z,48.84
2022-12-11T00:33:21.681Z,48.92
2022-12-11T00:35:52.282Z,48.98
2022-12-11T00:38:24.176Z,49.00
2022-12-11T00:40:58.829Z,49.04
2022-12-11T00:43:29.407Z,48.93
2022-12-11T00:46:00.134Z,48.93
2022-12-11T00:48:31.153Z,49.14
2022-12-11T00:51:01.818Z,49.14
2022-12-11T00:53:32.585Z,49.21
2022-12-11T00:56:03.306Z,49.00
2022-12-11T00:58:36.392Z,49.00
2022-12-11T01:01:11.026Z,49.10
2022-12-11T01:03:41.815Z,49.29
2022-12-11T01:06:17.112Z,49.44
2022-12-11T01:08:48.221Z,49.31
2022-12-11T01:11:20.969Z,49.19
2022-12-11T01:13:51.868Z,49.36
2022-12-11T01:16:22.407Z,49.45
2022-12-11T01:18:53.008Z,49.44
2022-12-11T01:21:23.571Z,49.37
2022-12-11T01:23:54.806Z,49.55
2022-12-11T01:26:25.407Z,49.64
2022-12-11T01:28:56.091Z,49.56
2022-12-11T01:31:26.834Z,49.45
2022-12-11T01:33:58.759Z,49.31
2022-12-11T01:36:29.429Z,49.28
2022-12-11T01:39:00.045Z,49.45
2022-12-11T01:41:31.263Z,49.56
2022-12-11T01:44:05.736Z,49.51
2022-12-11T01:46:37.860Z,49.54
2022-12-11T01:49:11.374Z,49.76
2022-12-11T01:51:47.403Z,49.73
2022-12-11T01:54:20.202Z,49.77
2022-12-11T01:56:53.606Z,49.82
2022-12-11T01:59:29.318Z,49.71
2022-12-11T02:02:05.663Z,49.69
2022-12-11T02:04:38.867Z,49.78
2022-12-11T02:07:10.630Z,49.94
2022-12-11T02:09:44.712Z,50.09
2022-12-11T02:12:24.980Z,49.94
2022-12-11T02:15:04.529Z,50.06
2022-12-11T02:17:41.901Z,50.07
2022-12-11T02:20:18.909Z,50.18
2022-12-11T02:23:20.440Z,50.14
2022-12-11T02:25:57.936Z,50.23
2022-12-11T02:28:34.749Z,50.19
2022-12-11T02:31:11.633Z,50.27
2022-12-11T02:33:48.668Z,50.26
2022-12-11T02:36:23.414Z,50.27
2022-12-11T02:38:58.023Z,50.33
2022-12-11T02:41:30.875Z,50.25
2022-12-11T02:44:03.799Z,50.36
2022-12-11T02:46:37.978Z,50.38
2022-12-11T02:49:11.307Z,50.35
2022-12-11T02:51:44.458Z,50.26
2022-12-11T02:54:20.580Z,50.42
2022-12-11T02:56:55.585Z,50.50
2022-12-11T02:59:32.271Z,50.48
2022-12-11T03:02:03.423Z,50.46
2022-12-11T03:04:35.492Z,50.33
2022-12-11T03:07:12.357Z,50.38
2022-12-11T03:09:44.942Z,50.41
2022-12-11T03:12:20.164Z,50.39
2022-12-11T03:14:51.435Z,50.40
2022-12-11T03:17:25.161Z,50.38
2022-12-11T03:20:08.370Z,50.64
2022-12-11T03:22:44.986Z,50.56
2022-12-11T03:25:21.767Z,50.58
2022-12-11T03:27:59.401Z,50.53
2022-12-11T03:30:32.429Z,50.56
2022-12-11T03:33:05.967Z,50.48
2022-12-11T03:35:40.246Z,50.54
2022-12-11T03:38:14.923Z,50.59
2022-12-11T03:40:50.487Z,50.55
2022-12-11T03:43:23.364Z,50.60
2022-12-11T03:45:55.672Z,50.55
2022-12-11T03:48:31.172Z,50.73
2022-12-11T03:51:03.570Z,50.78
2022-12-11T03:53:36.512Z,50.64
2022-12-11T03:56:11.884Z,50.73
2022-12-11T03:58:43.486Z,50.58
2022-12-11T04:01:14.250Z,50.56
2022-12-11T04:03:44.936Z,50.58
2022-12-11T04:06:15.775Z,50.62
2022-12-11T04:08:47.012Z,50.59
2022-12-11T04:11:36.497Z,50.73
2022-12-11T04:14:27.661Z,50.63
2022-12-11T04:17:00.034Z,50.63
2022-12-11T04:19:48.631Z,50.85
2022-12-11T04:22:38.030Z,50.87
2022-12-11T04:25:10.293Z,50.83
2022-12-11T04:27:50.349Z,50.84
2022-12-11T04:30:21.953Z,50.71
2022-12-11T04:32:53.791Z,50.62
2022-12-11T04:35:24.968Z,50.64
2022-12-11T04:37:56.315Z,50.67
2022-12-11T04:40:27.362Z,50.66
2022-12-11T04:42:58.201Z,50.59
2022-12-11T04:45:28.839Z,50.70
2022-12-11T04:47:59.666Z,50.74
2022-12-11T04:50:30.440Z,50.81
2022-12-11T04:53:01.076Z,50.72
2022-12-11T04:55:31.891Z,50.67
2022-12-11T04:58:02.627Z,50.70
2022-12-11T05:00:33.572Z,50.74
2022-12-11T05:03:04.184Z,50.96
2022-12-11T05:05:34.841Z,51.11
2022-12-11T05:08:06.179Z,51.16
2022-12-11T05:10:36.776Z,51.12
2022-12-11T05:13:07.361Z,51.16
2022-12-11T05:15:39.648Z,51.27
2022-12-11T05:18:10.559Z,51.22
2022-12-11T05:20:41.227Z,51.32
2022-12-11T05:23:11.948Z,51.37
2022-12-11T05:25:42.575Z,51.20
2022-12-11T05:28:13.222Z,51.23
2022-12-11T05:30:43.858Z,51.24
2022-12-11T05:33:14.545Z,51.35
2022-12-11T05:35:50.959Z,51.30
2022-12-11T05:38:22.728Z,51.34
2022-12-11T05:41:00.509Z,51.31
2022-12-11T05:43:36.986Z,51.33
2022-12-11T05:46:13.071Z,51.28
2022-12-11T05:48:45.102Z,51.21
2022-12-11T05:51:16.983Z,51.20
2022-12-11T05:53:48.948Z,51.13
2022-12-11T05:56:22.221Z,51.15
2022-12-11T05:58:53.693Z,51.20
2022-12-11T06:01:26.220Z,50.97
2022-12-11T06:03:58.329Z,50.91
2022-12-11T06:06:30.013Z,50.93
2022-12-11T06:09:01.954Z,50.82
2022-12-11T06:11:34.861Z,50.85
2022-12-11T06:14:05.862Z,50.84
2022-12-11T06:16:36.529Z,50.92
2022-12-11T06:19:07.168Z,50.87
2022-12-11T06:21:37.890Z,50.75
2022-12-11T06:24:11.673Z,50.75
2022-12-11T06:26:42.430Z,50.68
2022-12-11T06:29:13.313Z,50.65
2022-12-11T06:31:44.285Z,50.60
2022-12-11T06:34:15.528Z,50.57
2022-12-11T06:36:46.221Z,50.52
2022-12-11T06:39:16.855Z,50.45
2022-12-11T06:41:47.798Z,50.43
2022-12-11T06:44:18.364Z,50.45
2022-12-11T06:46:48.956Z,50.48
2022-12-11T06:49:19.704Z,50.42
2022-12-11T06:51:50.726Z,50.53
2022-12-11T06:54:21.471Z,50.36
2022-12-11T06:56:52.037Z,50.33
2022-12-11T06:59:22.774Z,50.37
2022-12-11T07:01:53.437Z,50.32
2022-12-11T07:04:27.195Z,50.33
2022-12-11T07:06:58.143Z,50.15
2022-12-11T07:09:29.087Z,50.14
2022-12-11T07:11:59.698Z,50.31
2022-12-11T07:14:30.608Z,50.30
2022-12-11T07:17:01.313Z,50.16
2022-12-11T07:19:32.198Z,50.21
2022-12-11T07:22:02.780Z,50.28
2022-12-11T07:24:33.405Z,50.27
2022-12-11T07:27:05.172Z,50.26
2022-12-11T07:29:36.050Z,50.21
2022-12-11T07:32:08.073Z,50.23
2022-12-11T07:34:39.336Z,50.19
2022-12-11T07:37:10.167Z,50.24
2022-12-11T07:39:41.288Z,50.03
2022-12-11T07:42:12.018Z,49.97
2022-12-11T07:44:42.632Z,49.94
2022-12-11T07:47:13.631Z,49.88
2022-12-11T07:49:44.478Z,49.91
2022-12-11T07:52:18.911Z,49.80
2022-12-11T07:54:49.810Z,49.82
2022-12-11T07:57:20.589Z,49.75
2022-12-11T07:59:51.486Z,49.71
2022-12-11T08:02:22.385Z,49.63
2022-12-11T08:04:53.203Z,49.59
2022-12-11T08:07:24.003Z,49.52
2022-12-11T08:09:54.632Z,49.39
2022-12-11T08:12:25.267Z,49.36
2022-12-11T08:14:55.843Z,49.31
2022-12-11T08:17:30.880Z,49.31
2022-12-11T08:20:03.626Z,49.13
2022-12-11T08:22:35.423Z,49.04
2022-12-11T08:25:07.033Z,49.11
2022-12-11T08:27:37.821Z,49.05
2022-12-11T08:30:10.703Z,49.09
2022-12-11T08:32:41.341Z,49.02
2022-12-11T08:35:13.222Z,48.96
2022-12-11T08:37:44.150Z,48.74
2022-12-11T08:40:15.499Z,48.84
2022-12-11T08:42:46.651Z,48.61
2022-12-11T08:45:17.388Z,48.58
2022-12-11T08:47:48.024Z,48.59
2022-12-11T08:50:18.822Z,48.43
2022-12-11T08:52:49.605Z,48.49
2022-12-11T08:55:20.518Z,48.53
2022-12-11T08:57:51.283Z,48.40
2022-12-11T09:00:22.452Z,48.31
2022-12-11T09:02:53.245Z,48.40
2022-12-11T09:05:23.848Z,48.28
2022-12-11T09:07:54.608Z,48.33
2022-12-11T09:10:25.250Z,48.40
2022-12-11T09:12:55.871Z,48.31
2022-12-11T09:15:26.549Z,48.43
2022-12-11T09:17:57.282Z,48.49
2022-12-11T09:20:28.090Z,48.38
2022-12-11T09:22:58.758Z,48.45
2022-12-11T09:25:29.497Z,48.35
2022-12-11T09:28:00.132Z,48.50
2022-12-11T09:30:30.839Z,48.54
2022-12-11T09:33:01.916Z,48.56
2022-12-11T09:35:33.400Z,48.33
2022-12-11T09:38:04.324Z,48.11
2022-12-11T09:40:35.772Z,48.11
2022-12-11T09:43:21.863Z,48.28
2022-12-11T09:45:55.535Z,48.29
2022-12-11T09:48:28.823Z,48.29
2022-12-11T09:51:03.249Z,48.26
2022-12-11T09:53:37.748Z,48.35
2022-12-11T09:56:17.869Z,48.29
2022-12-11T09:59:03.279Z,48.27
2022-12-11T10:01:42.107Z,48.12
2022-12-11T10:04:32.382Z,47.84
2022-12-11T10:07:13.129Z,47.85
2022-12-11T10:09:51.391Z,47.82
2022-12-11T10:12:40.065Z,47.56
2022-12-11T10:15:35.026Z,47.58
2022-12-11T10:18:11.060Z,47.53
2022-12-11T10:20:43.022Z,47.25
2022-12-11T10:23:20.916Z,47.29
2022-12-11T10:25:56.376Z,47.18
2022-12-11T10:28:30.487Z,47.09
2022-12-11T10:31:11.034Z,47.09
2022-12-11T10:33:51.108Z,47.27
2022-12-11T10:36:27.927Z,47.08
2022-12-11T10:38:59.385Z,47.03
2022-12-11T10:41:39.166Z,46.84
2022-12-11T10:44:18.517Z,46.91
2022-12-11T10:47:01.719Z,47.07
2022-12-11T10:49:34.332Z,47.09
2022-12-11T10:52:13.982Z,47.02
2022-12-11T10:54:49.149Z,47.08
2022-12-11T10:57:31.455Z,47.22
2022-12-11T11:00:04.684Z,47.28
2022-12-11T11:02:38.563Z,47.33
2022-12-11T11:05:17.160Z,47.11
2022-12-11T11:07:47.898Z,47.03
2022-12-11T11:10:20.310Z,47.13
2022-12-11T11:12:57.122Z,47.03
2022-12-11T11:15:30.643Z,47.15
2022-12-11T11:18:12.379Z,47.34
2022-12-11T11:20:49.013Z,47.39
2022-12-11T11:23:22.828Z,47.68
2022-12-11T11:25:53.203Z,47.65
2022-12-11T11:28:26.974Z,47.75
2022-12-11T11:31:03.901Z,47.77
2022-12-11T11:33:36.941Z,48.00
2022-12-11T11:36:20.825Z,48.02
2022-12-11T11:39:03.225Z,47.99
2022-12-11T11:41:42.137Z,47.86
2022-12-11T11:44:17.136Z,47.68
2022-12-11T11:46:56.208Z,47.61
2022-12-11T11:49:37.849Z,47.38
2022-12-11T11:52:17.180Z,47.38
2022-12-11T11:54:54.275Z,47.49
2022-12-11T11:57:33.839Z,47.30
2022-12-11T12:00:10.891Z,47.55
2022-12-11T12:02:43.744Z,47.56
2022-12-11T12:05:17.848Z,47.76
2022-12-11T12:07:59.439Z,47.76
2022-12-11T12:10:36.171Z,47.79
2022-12-11T12:13:47.689Z,48.17
2022-12-11T12:16:29.483Z,48.17
2022-12-11T12:19:10.388Z,48.19
2022-12-11T12:21:45.036Z,47.95
2022-12-11T12:24:30.407Z,47.96
2022-12-11T12:27:22.799Z,48.19
2022-12-11T12:30:05.010Z,48.26
2022-12-11T12:32:45.875Z,48.17
2022-12-11T12:35:31.896Z,48.33
2022-12-11T12:38:12.207Z,48.44
2022-12-11T12:40:56.770Z,48.39
2022-12-11T12:43:57.831Z,48.17
2022-12-11T12:46:42.077Z,47.83
2022-12-11T12:49:16.986Z,47.66
2022-12-11T12:51:48.381Z,47.48
2022-12-11T12:54:22.359Z,47.46
2022-12-11T12:56:53.402Z,47.29
2022-12-11T12:59:26.991Z,47.25
2022-12-11T13:02:00.820Z,47.00
2022-12-11T13:04:59.446Z,47.18
2022-12-11T13:07:32.288Z,47.12
2022-12-11T13:10:09.365Z,47.04
2022-12-11T13:12:47.859Z,47.06
2022-12-11T13:15:40.834Z,47.09
2022-12-11T13:18:35.643Z,47.23
2022-12-11T13:21:20.532Z,47.11
2022-12-11T13:23:51.417Z,46.95
2022-12-11T13:26:32.875Z,46.69
2022-12-11T13:29:06.278Z,46.56
2022-12-11T13:31:39.515Z,46.20
2022-12-11T13:34:22.095Z,46.15
2022-12-11T13:36:54.768Z,45.89
2022-12-11T13:39:27.595Z,45.74
2022-12-11T13:42:01.678Z,45.73
2022-12-11T13:44:38.270Z,45.49
2022-12-11T13:47:13.333Z,45.44
2022-12-11T13:49:47.754Z,45.08
2022-12-11T13:52:21.856Z,45.13
2022-12-11T13:54:54.485Z,45.18
2022-12-11T13:57:28.494Z,45.25
2022-12-11T14:00:00.776Z,45.19
2022-12-11T14:02:35.030Z,45.20
2022-12-11T14:05:09.165Z,45.08
2022-12-11T14:07:47.713Z,45.40
2022-12-11T14:10:20.766Z,45.72
2022-12-11T14:12:54.991Z,45.86
2022-12-11T14:15:26.492Z,45.58
2022-12-11T14:17:57.928Z,45.52
2022-12-11T14:20:31.189Z,45.65
2022-12-11T14:23:10.153Z,45.46
2022-12-11T14:25:41.008Z,45.34
2022-12-11T14:28:19.009Z,45.31
2022-12-11T14:30:51.588Z,45.15
2022-12-11T14:33:26.049Z,45.07
2022-12-11T14:35:58.389Z,45.17
2022-12-11T14:38:34.640Z,45.06
2022-12-11T14:41:12.754Z,45.03
2022-12-11T14:43:48.507Z,45.16
2022-12-11T14:46:23.112Z,45.03
2022-12-11T14:49:01.093Z,45.07
2022-12-11T14:51:36.231Z,45.35
2022-12-11T14:54:08.469Z,45.38
2022-12-11T14:56:39.212Z,45.53
2022-12-11T14:59:19.395Z,45.59
2022-12-11T15:02:00.630Z,45.70
2022-12-11T15:04:34.114Z,45.70
2022-12-11T15:07:04.929Z,45.73
2022-12-11T15:09:42.617Z,45.94
2022-12-11T15:12:16.463Z,45.77
2022-12-11T15:14:51.634Z,45.73
2022-12-11T15:17:23.935Z,45.83
2022-12-11T15:19:58.100Z,45.88
2022-12-11T15:22:32.480Z,45.70
2022-12-11T15:25:03.818Z,45.88
2022-12-11T15:27:37.994Z,45.78
2022-12-11T15:30:28.428Z,45.73
2022-12-11T15:33:22.197Z,45.59
2022-12-11T15:36:05.459Z,45.72
2022-12-11T15:38:40.757Z,45.85
2022-12-11T15:41:17.157Z,45.76
2022-12-11T15:43:50.085Z,45.67
2022-12-11T15:46:24.080Z,45.67
2022-12-11T15:48:55.004Z,45.45
2022-12-11T15:51:27.682Z,45.43
2022-12-11T15:53:58.494Z,45.10
2022-12-11T15:56:29.268Z,44.92
2022-12-11T15:59:04.542Z,44.62
2022-12-11T16:01:35.583Z,44.56
2022-12-11T16:04:06.866Z,44.35
2022-12-11T16:06:38.380Z,44.13
2022-12-11T16:09:09.578Z,43.94
2022-12-11T16:11:40.519Z,43.79
2022-12-11T16:14:11.238Z,43.80
2022-12-11T16:16:43.616Z,43.58
2022-12-11T16:19:14.708Z,43.48
2022-12-11T16:21:46.061Z,43.23
2022-12-11T16:24:16.976Z,43.11
2022-12-11T16:26:47.856Z,43.08
2022-12-11T16:29:18.883Z,42.96
2022-12-11T16:31:49.824Z,42.53
2022-12-11T16:34:20.677Z,42.71
2022-12-11T16:36:51.407Z,42.95
2022-12-11T16:39:22.147Z,43.17
2022-12-11T16:41:53.295Z,43.14
2022-12-11T16:44:25.462Z,42.98
2022-12-11T16:46:56.809Z,42.96
2022-12-11T16:49:27.667Z,42.88
2022-12-11T16:51:58.404Z,42.77
2022-12-11T16:54:29.238Z,42.61
2022-12-11T16:57:00.278Z,42.54
2022-12-11T16:59:36.882Z,42.46
2022-12-11T17:02:08.663Z,42.23
2022-12-11T17:04:39.964Z,42.31
2022-12-11T17:07:11.318Z,42.08
2022-12-11T17:09:42.156Z,41.74
2022-12-11T17:12:12.992Z,41.88
2022-12-11T17:14:43.879Z,41.68
2022-12-11T17:17:14.792Z,41.80
2022-12-11T17:19:45.973Z,41.65
2022-12-11T17:22:16.978Z,41.37
2022-12-11T17:24:48.119Z,41.49
2022-12-11T17:27:18.958Z,41.74
2022-12-11T17:29:50.860Z,42.04
2022-12-11T17:32:22.441Z,42.31
2022-12-11T17:34:53.437Z,42.50
2022-12-11T17:37:24.286Z,42.74
2022-12-11T17:39:55.435Z,42.99
2022-12-11T17:42:26.363Z,42.90
2022-12-11T17:44:57.216Z,43.17
2022-12-11T17:47:27.945Z,43.22
2022-12-11T17:49:59.112Z,42.95
2022-12-11T17:52:34.936Z,43.08
2022-12-11T17:55:09.356Z,43.20
2022-12-11T17:57:40.817Z,43.28
2022-12-11T18:00:14.131Z,43.41
2022-12-11T18:02:45.048Z,43.37
2022-12-11T18:05:16.338Z,43.37
2022-12-11T18:07:47.213Z,43.50
2022-12-11T18:10:18.596Z,43.56
2022-12-11T18:12:49.368Z,43.56
2022-12-11T18:15:20.790Z,43.41
2022-12-11T18:17:51.628Z,43.50
2022-12-11T18:20:23.066Z,43.44
2022-12-11T18:22:54.479Z,43.51
2022-12-11T18:25:25.754Z,43.54
2022-12-11T18:27:56.834Z,43.51
2022-12-11T18:30:29.104Z,43.50
2022-12-11T18:32:59.931Z,43.48
2022-12-11T18:35:31.977Z,43.46
2022-12-11T18:38:02.868Z,43.46
2022-12-11T18:40:34.127Z,43.39
2022-12-11T18:43:04.949Z,43.35
2022-12-11T18:45:35.741Z,43.39
2022-12-11T18:48:07.207Z,43.39
2022-12-11T18:50:38.216Z,43.41
2022-12-11T18:53:09.026Z,43.33
2022-12-11T18:55:44.625Z,43.21
2022-12-11T18:58:19.072Z,43.25
2022-12-11T19:00:49.974Z,43.28
2022-12-11T19:03:20.870Z,43.12
2022-12-11T19:05:52.006Z,43.24
2022-12-11T19:08:23.935Z,43.36
2022-12-11T19:10:54.997Z,43.28
2022-12-11T19:13:25.893Z,43.52
2022-12-11T19:15:57.121Z,42.87
2022-12-11T19:18:28.482Z,42.96
2022-12-11T19:21:08.388Z,42.82
2022-12-11T19:23:40.080Z,42.70
2022-12-11T19:26:16.765Z,42.75
2022-12-11T19:28:48.537Z,42.92
2022-12-11T19:31:22.130Z,42.95
2022-12-11T19:33:53.520Z,42.96
2022-12-11T19:36:27.285Z,43.27
2022-12-11T19:39:01.906Z,43.37
2022-12-11T19:41:34.280Z,43.25
2022-12-11T19:44:05.565Z,43.23
2022-12-11T19:46:37.013Z,43.35
2022-12-11T19:49:08.574Z,43.35
2022-12-11T19:51:43.563Z,43.52
2022-12-11T19:54:18.546Z,43.48
2022-12-11T19:56:49.718Z,43.57
2022-12-11T19:59:22.209Z,43.57
2022-12-11T20:01:54.160Z,43.64
2022-12-11T20:04:25.685Z,43.84
2022-12-11T20:06:56.796Z,43.97
2022-12-11T20:09:31.159Z,43.87
2022-12-11T20:12:03.468Z,43.88
2022-12-11T20:14:35.255Z,43.90
2022-12-11T20:17:12.998Z,43.91
2022-12-11T20:19:45.558Z,43.89
2022-12-11T20:22:17.548Z,43.78
2022-12-11T20:24:49.662Z,43.67
2022-12-11T20:27:20.954Z,43.69
2022-12-11T20:29:53.059Z,43.58
2022-12-11T20:32:24.449Z,43.59
2022-12-11T20:34:58.437Z,43.55
2022-12-11T20:37:30.442Z,43.57
2022-12-11T20:40:02.096Z,43.17
2022-12-11T20:42:34.198Z,43.25
2022-12-11T20:45:06.176Z,43.32
2022-12-11T20:47:37.585Z,43.51
2022-12-11T20:50:12.473Z,43.35
2022-12-11T20:52:43.559Z,43.66
2022-12-11T20:55:15.269Z,43.66
2022-12-11T20:57:46.381Z,43.56
2022-12-11T21:00:19.318Z,43.55
2022-12-11T21:02:52.267Z,43.55
2022-12-11T21:05:23.754Z,43.56
2022-12-11T21:07:56.130Z,43.59
2022-12-11T21:10:27.266Z,43.69
2022-12-11T21:12:58.212Z,43.74
2022-12-11T21:15:29.209Z,43.81
2022-12-11T21:18:00.168Z,43.80
2022-12-11T21:20:31.152Z,43.80
2022-12-11T21:23:01.992Z,43.68
2022-12-11T21:25:32.777Z,43.74
2022-12-11T21:28:04.113Z,43.85
2022-12-11T21:30:34.967Z,43.75
2022-12-11T21:33:05.788Z,43.79
2022-12-11T21:35:36.554Z,43.93
2022-12-11T21:38:07.694Z,43.92
2022-12-11T21:40:38.635Z,43.85
2022-12-11T21:43:09.372Z,43.97
2022-12-11T21:46:10.682Z,44.05
2022-12-11T21:48:31.423Z,43.99
2022-12-11T21:51:10.671Z,43.99
2022-12-11T21:53:41.624Z,44.15
2022-12-11T21:56:14.203Z,44.12
2022-12-11T21:58:45.818Z,44.33
2022-12-11T22:01:19.599Z,44.37
2022-12-11T22:03:51.187Z,44.50
2022-12-11T22:06:22.669Z,44.45
2022-12-11T22:08:53.695Z,44.50
2022-12-11T22:11:26.271Z,44.43
2022-12-11T22:13:57.020Z,44.41
2022-12-11T22:16:28.109Z,44.49
2022-12-11T22:18:59.000Z,44.62
2022-12-11T22:21:29.837Z,44.81
2022-12-11T22:24:01.086Z,44.61
2022-12-11T22:26:31.828Z,44.88
2022-12-11T22:29:02.621Z,45.01
2022-12-11T22:31:33.511Z,45.07
2022-12-11T22:34:04.368Z,44.90
2022-12-11T22:36:35.140Z,45.04
2022-12-11T22:39:05.925Z,45.31
2022-12-11T22:41:41.987Z,45.26
2022-12-11T22:44:16.708Z,45.32
2022-12-11T22:46:50.206Z,45.52
2022-12-11T22:49:19.487Z,45.53
2022-12-11T22:51:50.306Z,45.58
2022-12-11T22:54:20.994Z,45.56
2022-12-11T22:56:51.666Z,45.66
2022-12-11T22:59:22.455Z,45.77
2022-12-11T23:01:53.209Z,45.69
2022-12-11T23:04:23.902Z,45.84
2022-12-11T23:06:54.771Z,45.72
2022-12-11T23:09:25.574Z,45.78
2022-12-11T23:11:58.489Z,45.90
2022-12-11T23:14:29.221Z,46.04
2022-12-11T23:17:00.172Z,45.99
2022-12-11T23:19:30.931Z,46.13
2022-12-11T23:22:01.779Z,46.20
2022-12-11T23:24:32.715Z,46.16
2022-12-11T23:27:03.757Z,46.12
2022-12-11T23:29:34.699Z,46.19
2022-12-11T23:32:05.747Z,46.19
2022-12-11T23:34:36.585Z,46.20
2022-12-11T23:37:07.323Z,46.42
2022-12-11T23:39:38.025Z,46.32
2022-12-11T23:42:09.483Z,46.35
2022-12-11T23:44:40.100Z,46.46
2022-12-11T23:47:11.290Z,46.59
2022-12-11T23:49:42.178Z,46.48
2022-12-11T23:52:13.047Z,46.49
2022-12-11T23:54:43.818Z,46.67
2022-12-11T23:57:14.478Z,46.78
2022-12-11T23:59:45.102Z,46.80
